createdAt,value
2022-07-26T00:02:02.947Z,100771.44
2022-07-26T00:04:31.113Z,100773.66
2022-07-26T00:06:58.689Z,100763.97
2022-07-26T00:09:27.195Z,100759.16
2022-07-26T00:11:56.459Z,100760.00
2022-07-26T00:14:24.125Z,100775.03
2022-07-26T00:16:51.789Z,100766.94
2022-07-26T00:19:19.422Z,100765.63
2022-07-26T00:21:47.021Z,100765.88
2022-07-26T00:24:14.589Z,100766.66
2022-07-26T00:26:42.149Z,100769.47
2022-07-26T00:29:11.916Z,100771.09
2022-07-26T00:31:39.721Z,100773.78
2022-07-26T00:34:07.309Z,100764.31
2022-07-26T00:36:34.884Z,100760.56
2022-07-26T00:39:03.874Z,100759.72
2022-07-26T00:41:31.469Z,100775.09
2022-07-26T00:44:01.610Z,100773.97
2022-07-26T00:46:30.639Z,100778.28
2022-07-26T00:48:58.646Z,100776.41
2022-07-26T00:51:26.353Z,100764.72
2022-07-26T00:53:54.101Z,100768.16
2022-07-26T00:56:22.750Z,100762.50
2022-07-26T00:58:50.477Z,100773.81
2022-07-26T01:01:18.167Z,100770.06
2022-07-26T01:03:51.326Z,100762.75
2022-07-26T01:06:20.180Z,100770.84
2022-07-26T01:08:51.313Z,100773.25
2022-07-26T01:11:18.905Z,100772.97
2022-07-26T01:13:48.150Z,100767.84
2022-07-26T01:16:15.794Z,100770.44
2022-07-26T01:18:43.794Z,100768.22
2022-07-26T01:21:14.297Z,100766.84
2022-07-26T01:23:44.080Z,100766.75
2022-07-26T01:26:12.622Z,100764.00
2022-07-26T01:28:42.281Z,100766.09
2022-07-26T01:31:10.173Z,100770.84
2022-07-26T01:33:37.905Z,100773.19
2022-07-26T01:36:06.008Z,100768.84
2022-07-26T01:38:33.689Z,100779.91
2022-07-26T01:41:02.953Z,100773.44
2022-07-26T01:43:30.679Z,100765.34
2022-07-26T01:45:58.808Z,100770.50
2022-07-26T01:48:26.628Z,100768.28
2022-07-26T01:50:54.324Z,100767.72
2022-07-26T01:53:21.914Z,100761.72
2022-07-26T01:55:49.594Z,100766.31
2022-07-26T01:58:18.987Z,100771.38
2022-07-26T02:00:46.597Z,100772.19
2022-07-26T02:03:14.199Z,100771.38
2022-07-26T02:05:41.825Z,100775.47
2022-07-26T02:08:09.689Z,100772.53
2022-07-26T02:11:07.485Z,100773.34
2022-07-26T02:13:38.110Z,100771.47
2022-07-26T02:16:08.248Z,100766.09
2022-07-26T02:18:37.522Z,100776.03
2022-07-26T02:21:06.410Z,100779.31
2022-07-26T02:23:34.499Z,100777.22
2022-07-26T02:26:02.919Z,100779.66
2022-07-26T02:28:30.517Z,100773.69
2022-07-26T02:30:59.569Z,100777.44
2022-07-26T02:33:27.615Z,100780.38
2022-07-26T02:35:55.249Z,100784.47
2022-07-26T02:38:22.825Z,100776.13
2022-07-26T02:40:53.491Z,100778.00
2022-07-26T02:43:21.078Z,100781.28
2022-07-26T02:46:01.188Z,100785.59
2022-07-26T02:48:31.618Z,100784.81
2022-07-26T02:50:59.357Z,100783.50
2022-07-26T02:53:26.952Z,100785.38
2022-07-26T02:55:54.722Z,100799.34
2022-07-26T02:58:22.634Z,100795.19
2022-07-26T03:00:50.208Z,100793.38
2022-07-26T03:03:17.881Z,100803.09
2022-07-26T03:05:46.962Z,100801.78
2022-07-26T03:08:14.665Z,100801.22
2022-07-26T03:10:42.292Z,100803.91
2022-07-26T03:13:10.364Z,100804.41
2022-07-26T03:15:38.218Z,100814.06
2022-07-26T03:18:05.896Z,100805.03
2022-07-26T03:20:33.509Z,100805.19
2022-07-26T03:23:02.450Z,100807.75
2022-07-26T03:25:30.014Z,100815.50
2022-07-26T03:27:57.993Z,100809.78
2022-07-26T03:30:26.577Z,100814.00
2022-07-26T03:32:54.343Z,100814.97
2022-07-26T03:35:22.144Z,100820.00
2022-07-26T03:37:49.738Z,100810.28
2022-07-26T03:40:19.318Z,100814.88
2022-07-26T03:42:47.813Z,100820.25
2022-07-26T03:45:16.897Z,100814.03
2022-07-26T03:47:46.363Z,100812.75
2022-07-26T03:50:14.089Z,100811.69
2022-07-26T03:52:41.990Z,100810.75
2022-07-26T03:55:24.522Z,100817.88
2022-07-26T03:57:53.509Z,100817.69
2022-07-26T04:00:21.302Z,100818.69
2022-07-26T04:02:49.276Z,100821.22
2022-07-26T04:05:16.887Z,100823.19
2022-07-26T04:07:53.268Z,100818.84
2022-07-26T04:10:21.859Z,100823.19
2022-07-26T04:12:49.672Z,100823.19
2022-07-26T04:15:19.202Z,100832.47
2022-07-26T04:17:48.165Z,100842.94
2022-07-26T04:20:16.510Z,100853.56
2022-07-26T04:22:44.888Z,100853.47
2022-07-26T04:25:12.764Z,100863.34
2022-07-26T04:27:40.490Z,100860.91
2022-07-26T04:30:14.408Z,100870.44
2022-07-26T04:32:46.639Z,100869.84
2022-07-26T04:35:15.543Z,100873.47
2022-07-26T04:37:43.999Z,100885.38
2022-07-26T04:40:13.103Z,100889.19
2022-07-26T04:42:40.780Z,100893.88
2022-07-26T04:45:10.770Z,100889.50
2022-07-26T04:47:38.356Z,100895.69
2022-07-26T04:50:09.318Z,100893.66
2022-07-26T04:52:36.911Z,100898.56
2022-07-26T04:55:05.153Z,100898.38
2022-07-26T04:57:32.753Z,100904.56
2022-07-26T05:00:20.408Z,100917.69
2022-07-26T05:02:49.615Z,100923.28
2022-07-26T05:05:18.610Z,100915.13
2022-07-26T05:07:48.022Z,100926.84
2022-07-26T05:10:17.287Z,100926.84
2022-07-26T05:12:45.753Z,100941.13
2022-07-26T05:15:14.391Z,100942.69
2022-07-26T05:17:43.415Z,100942.78
2022-07-26T05:20:13.543Z,100961.97
2022-07-26T05:22:43.268Z,100954.50
2022-07-26T05:25:11.321Z,100958.00
2022-07-26T05:27:40.549Z,100950.38
2022-07-26T05:30:09.817Z,100955.06
2022-07-26T05:32:37.604Z,100963.63
2022-07-26T05:35:05.938Z,100964.53
2022-07-26T05:37:33.496Z,100966.47
2022-07-26T05:40:02.471Z,100965.59
2022-07-26T05:42:30.185Z,100976.47
2022-07-26T05:44:57.809Z,100970.97
2022-07-26T05:47:25.461Z,100970.69
2022-07-26T05:49:53.056Z,100981.59
2022-07-26T05:52:20.625Z,100980.56
2022-07-26T05:54:48.218Z,100979.63
2022-07-26T05:57:17.162Z,100991.00
2022-07-26T05:59:44.728Z,100990.19
2022-07-26T06:02:12.474Z,101005.50
2022-07-26T06:04:40.452Z,101000.94
2022-07-26T06:07:08.109Z,101006.69
2022-07-26T06:09:35.721Z,101010.78
2022-07-26T06:12:03.317Z,101018.91
2022-07-26T06:14:32.329Z,101029.56
2022-07-26T06:16:59.966Z,101024.81
2022-07-26T06:19:27.946Z,101030.56
2022-07-26T06:21:55.513Z,101026.66
2022-07-26T06:24:23.772Z,101040.03
2022-07-26T06:26:56.748Z,101043.69
2022-07-26T06:29:28.189Z,101044.47
2022-07-26T06:32:01.612Z,101043.97
2022-07-26T06:34:29.280Z,101047.19
2022-07-26T06:36:56.950Z,101033.38
2022-07-26T06:39:24.574Z,101041.78
2022-07-26T06:41:52.163Z,101037.66
2022-07-26T06:44:19.710Z,101039.22
2022-07-26T06:46:48.007Z,101038.69
2022-07-26T06:49:21.848Z,101050.94
2022-07-26T06:51:50.529Z,101050.84
2022-07-26T06:54:18.179Z,101057.13
2022-07-26T06:56:45.785Z,101072.00
2022-07-26T06:59:13.362Z,101064.63
2022-07-26T07:01:58.150Z,101074.06
2022-07-26T07:04:29.785Z,101080.47
2022-07-26T07:07:02.276Z,101068.13
2022-07-26T07:09:33.544Z,101082.22
2022-07-26T07:12:10.043Z,101072.38
2022-07-26T07:14:38.495Z,101084.00
2022-07-26T07:17:10.750Z,101086.00
2022-07-26T07:19:43.026Z,101096.81
2022-07-26T07:22:12.190Z,101097.56
2022-07-26T07:24:40.420Z,101098.06
2022-07-26T07:27:08.270Z,101100.13
2022-07-26T07:29:36.037Z,101093.81
2022-07-26T07:32:03.887Z,101095.50
2022-07-26T07:34:31.949Z,101110.69
2022-07-26T07:37:01.555Z,101119.22
2022-07-26T07:39:34.605Z,101142.50
2022-07-26T07:42:06.176Z,101147.28
2022-07-26T07:44:34.129Z,101154.75
2022-07-26T07:47:01.882Z,101139.88
2022-07-26T07:49:29.713Z,101153.06
2022-07-26T07:51:57.326Z,101154.84
2022-07-26T07:54:26.282Z,101147.53
2022-07-26T07:56:56.261Z,101151.72
2022-07-26T07:59:23.937Z,101158.00
2022-07-26T08:01:51.932Z,101146.91
2022-07-26T08:04:19.684Z,101155.06
2022-07-26T08:06:50.413Z,101144.56
2022-07-26T08:09:19.166Z,101156.59
2022-07-26T08:11:50.740Z,101157.38
2022-07-26T08:14:18.921Z,101156.66
2022-07-26T08:16:46.756Z,101165.63
2022-07-26T08:19:15.405Z,101164.06
2022-07-26T08:21:45.971Z,101155.88
2022-07-26T08:24:14.565Z,101151.56
2022-07-26T08:26:42.192Z,101156.44
2022-07-26T08:29:11.612Z,101149.50
2022-07-26T08:31:40.469Z,101147.06
2022-07-26T08:34:08.093Z,101151.44
2022-07-26T08:36:35.770Z,101158.94
2022-07-26T08:39:03.436Z,101165.91
2022-07-26T08:41:31.922Z,101169.06
2022-07-26T08:44:06.863Z,101161.22
2022-07-26T08:46:38.729Z,101172.50
2022-07-26T08:49:10.111Z,101195.13
2022-07-26T08:51:40.541Z,101199.53
2022-07-26T08:54:08.162Z,101202.56
2022-07-26T08:56:37.379Z,101203.03
2022-07-26T08:59:06.704Z,101206.94
2022-07-26T09:01:36.135Z,101219.94
2022-07-26T09:04:31.056Z,101219.59
2022-07-26T09:07:01.969Z,101222.59
2022-07-26T09:09:30.318Z,101218.09
2022-07-26T09:11:58.448Z,101230.44
2022-07-26T09:14:37.427Z,101225.72
2022-07-26T09:17:07.083Z,101217.75
2022-07-26T09:19:34.896Z,101220.66
2022-07-26T09:22:10.481Z,101247.47
2022-07-26T09:24:41.035Z,101249.63
2022-07-26T09:27:10.408Z,101255.75
2022-07-26T09:29:48.859Z,101254.22
2022-07-26T09:32:20.134Z,101252.91
2022-07-26T09:34:58.197Z,101258.59
2022-07-26T09:37:36.771Z,101245.63
2022-07-26T09:40:08.569Z,101256.84
2022-07-26T09:42:36.371Z,101252.44
2022-07-26T09:45:15.628Z,101252.00
2022-07-26T09:47:44.564Z,101263.81
2022-07-26T09:50:14.218Z,101260.38
2022-07-26T09:52:42.159Z,101274.47
2022-07-26T09:55:13.085Z,101272.22
2022-07-26T09:57:40.729Z,101275.31
2022-07-26T10:00:09.667Z,101254.75
2022-07-26T10:02:37.319Z,101273.75
2022-07-26T10:05:07.175Z,101279.59
2022-07-26T10:07:35.135Z,101287.44
2022-07-26T10:10:08.005Z,101292.28
2022-07-26T10:12:36.744Z,101287.25
2022-07-26T10:15:05.047Z,101289.63
2022-07-26T10:17:43.379Z,101292.69
2022-07-26T10:20:31.478Z,101295.66
2022-07-26T10:22:59.834Z,101291.78
2022-07-26T10:25:48.474Z,101305.28
2022-07-26T10:28:27.657Z,101302.00
2022-07-26T10:31:25.080Z,101312.72
2022-07-26T10:33:54.667Z,101300.00
2022-07-26T10:36:28.847Z,101308.13
2022-07-26T10:39:05.415Z,101304.41
2022-07-26T10:41:34.861Z,101311.03
2022-07-26T10:44:24.449Z,101318.88
2022-07-26T10:47:12.735Z,101316.78
2022-07-26T10:49:41.666Z,101308.44
2022-07-26T10:52:22.538Z,101316.78
2022-07-26T10:55:07.658Z,101325.31
2022-07-26T10:57:36.961Z,101326.88
2022-07-26T11:00:13.696Z,101326.53
2022-07-26T11:02:43.724Z,101325.69
2022-07-26T11:05:16.381Z,101336.56
2022-07-26T11:07:58.509Z,101340.31
2022-07-26T11:10:28.542Z,101333.44
2022-07-26T11:13:05.095Z,101333.06
2022-07-26T11:15:33.114Z,101335.97
2022-07-26T11:18:08.998Z,101344.25
2022-07-26T11:20:36.685Z,101331.06
2022-07-26T11:23:06.028Z,101334.66
2022-07-26T11:25:33.636Z,101336.63
2022-07-26T11:28:02.928Z,101347.59
2022-07-26T11:30:34.915Z,101343.00
2022-07-26T11:33:02.498Z,101346.25
2022-07-26T11:35:30.310Z,101346.47
2022-07-26T11:38:11.322Z,101341.94
2022-07-26T11:40:44.237Z,101343.81
2022-07-26T11:43:12.002Z,101354.13
2022-07-26T11:45:39.636Z,101356.41
2022-07-26T11:48:07.595Z,101362.66
2022-07-26T11:50:35.231Z,101353.41
2022-07-26T11:53:02.845Z,101362.00
2022-07-26T11:55:32.002Z,101354.97
2022-07-26T11:58:07.217Z,101362.53
2022-07-26T12:00:35.090Z,101370.47
2022-07-26T12:03:02.693Z,101363.47
2022-07-26T12:05:33.249Z,101364.22
2022-07-26T12:08:02.893Z,101376.03
2022-07-26T12:10:30.857Z,101375.53
2022-07-26T12:13:18.495Z,101373.81
2022-07-26T12:15:48.199Z,101371.13
2022-07-26T12:18:26.666Z,101368.81
2022-07-26T12:21:05.684Z,101362.00
2022-07-26T12:23:42.612Z,101368.22
2022-07-26T12:26:23.498Z,101376.94
2022-07-26T12:28:52.787Z,101376.25
2022-07-26T12:31:25.150Z,101383.16
2022-07-26T12:33:52.941Z,101384.38
2022-07-26T12:36:28.404Z,101377.09
2022-07-26T12:38:57.115Z,101388.25
2022-07-26T12:41:36.590Z,101371.59
2022-07-26T12:44:06.321Z,101382.50
2022-07-26T12:46:34.860Z,101379.97
2022-07-26T12:49:02.898Z,101402.72
2022-07-26T12:51:30.787Z,101393.03
2022-07-26T12:53:58.932Z,101395.00
2022-07-26T12:56:26.883Z,101392.56
2022-07-26T12:59:00.788Z,101387.34
2022-07-26T13:01:29.973Z,101393.66
2022-07-26T13:03:57.843Z,101404.41
2022-07-26T13:06:25.534Z,101397.88
2022-07-26T13:08:53.857Z,101413.03
2022-07-26T13:11:21.587Z,101410.56
2022-07-26T13:13:49.414Z,101398.22
2022-07-26T13:16:17.070Z,101394.34
2022-07-26T13:18:46.319Z,101400.13
2022-07-26T13:21:13.892Z,101396.22
2022-07-26T13:23:41.767Z,101394.94
2022-07-26T13:26:10.158Z,101395.75
2022-07-26T13:28:37.957Z,101397.63
2022-07-26T13:31:05.702Z,101415.13
2022-07-26T13:33:33.652Z,101418.88
2022-07-26T13:36:02.619Z,101414.47
2022-07-26T13:38:33.420Z,101427.47
2022-07-26T13:41:02.174Z,101420.22
2022-07-26T13:43:31.370Z,101418.31
2022-07-26T13:45:59.100Z,101422.75
2022-07-26T13:48:26.689Z,101427.66
2022-07-26T13:50:54.951Z,101423.94
2022-07-26T13:53:24.120Z,101419.63
2022-07-26T13:55:52.029Z,101430.13
2022-07-26T13:58:21.412Z,101441.38
2022-07-26T14:00:49.688Z,101442.34
2022-07-26T14:03:17.580Z,101447.38
2022-07-26T14:05:45.333Z,101448.69
2022-07-26T14:08:13.304Z,101461.22
2022-07-26T14:10:42.571Z,101455.25
2022-07-26T14:13:10.647Z,101447.09
2022-07-26T14:15:38.248Z,101443.88
2022-07-26T14:18:06.060Z,101449.50
2022-07-26T14:20:33.719Z,101453.81
2022-07-26T14:23:01.361Z,101452.00
2022-07-26T14:25:29.270Z,101449.97
2022-07-26T14:28:01.012Z,101466.75
2022-07-26T14:30:28.627Z,101470.75
2022-07-26T14:32:56.234Z,101466.75
2022-07-26T14:35:23.914Z,101469.56
2022-07-26T14:37:51.485Z,101476.88
2022-07-26T14:40:19.282Z,101472.25
2022-07-26T14:42:47.146Z,101473.09
2022-07-26T14:45:16.657Z,101479.09
2022-07-26T14:47:44.554Z,101482.63
2022-07-26T14:50:14.088Z,101485.09
2022-07-26T14:52:44.035Z,101483.69
2022-07-26T14:55:12.175Z,101484.50
2022-07-26T14:57:40.473Z,101492.28
2022-07-26T15:00:10.279Z,101490.28
2022-07-26T15:02:41.153Z,101496.06
2022-07-26T15:05:09.558Z,101489.66
2022-07-26T15:07:37.639Z,101493.94
2022-07-26T15:10:05.909Z,101494.94
2022-07-26T15:12:34.085Z,101479.53
2022-07-26T15:15:01.695Z,101490.34
2022-07-26T15:17:29.276Z,101488.13
2022-07-26T15:19:58.205Z,101500.03
2022-07-26T15:22:26.449Z,101499.84
2022-07-26T15:24:54.070Z,101496.28
2022-07-26T15:27:21.758Z,101488.47
2022-07-26T15:29:50.627Z,101491.66
2022-07-26T15:32:18.830Z,101487.66
2022-07-26T15:34:46.469Z,101491.47
2022-07-26T15:37:15.407Z,101485.69
2022-07-26T15:39:43.313Z,101482.84
2022-07-26T15:42:11.200Z,101481.41
2022-07-26T15:44:43.268Z,101471.91
2022-07-26T15:47:11.723Z,101475.75
2022-07-26T15:49:40.624Z,101485.47
2022-07-26T15:52:10.785Z,101495.59
2022-07-26T15:54:42.576Z,101492.38
2022-07-26T15:57:10.257Z,101502.28
2022-07-26T15:59:37.816Z,101499.72
2022-07-26T16:02:05.753Z,101500.81
2022-07-26T16:04:33.748Z,101489.78
2022-07-26T16:07:01.564Z,101495.53
2022-07-26T16:09:29.233Z,101492.34
2022-07-26T16:12:01.528Z,101488.44
2022-07-26T16:14:31.905Z,101491.63
2022-07-26T16:16:59.554Z,101479.53
2022-07-26T16:19:27.247Z,101486.47
2022-07-26T16:21:54.850Z,101480.84
2022-07-26T16:24:22.513Z,101485.59
2022-07-26T16:26:51.463Z,101489.97
2022-07-26T16:29:20.744Z,101484.94
2022-07-26T16:31:48.428Z,101480.66
2022-07-26T16:34:16.913Z,101478.44
2022-07-26T16:36:44.475Z,101483.44
2022-07-26T16:39:12.579Z,101486.25
2022-07-26T16:41:40.363Z,101486.38
2022-07-26T16:44:07.929Z,101479.91
2022-07-26T16:46:36.917Z,101488.88
2022-07-26T16:49:05.256Z,101495.00
2022-07-26T16:51:33.017Z,101477.09
2022-07-26T16:54:00.623Z,101491.31
2022-07-26T16:56:28.246Z,101490.09
2022-07-26T16:58:55.830Z,101475.06
2022-07-26T17:01:23.520Z,101491.31
2022-07-26T17:03:52.508Z,101497.81
2022-07-26T17:06:20.111Z,101500.94
2022-07-26T17:08:47.667Z,101501.03
2022-07-26T17:11:15.260Z,101500.13
2022-07-26T17:13:42.874Z,101499.44
2022-07-26T17:16:10.716Z,101503.78
2022-07-26T17:18:38.338Z,101507.00
2022-07-26T17:21:07.418Z,101504.03
2022-07-26T17:23:36.313Z,101503.25
2022-07-26T17:26:04.328Z,101499.22
2022-07-26T17:28:31.963Z,101495.69
2022-07-26T17:30:59.641Z,101497.19
2022-07-26T17:33:27.412Z,101492.81
2022-07-26T17:35:55.071Z,101505.84
2022-07-26T17:38:26.366Z,101512.41
2022-07-26T17:40:54.487Z,101499.16
2022-07-26T17:43:22.516Z,101505.53
2022-07-26T17:45:50.075Z,101504.66
2022-07-26T17:48:17.636Z,101499.09
2022-07-26T17:50:45.199Z,101501.84
2022-07-26T17:53:12.788Z,101506.50
2022-07-26T17:55:41.680Z,101514.38
2022-07-26T17:58:09.762Z,101509.94
2022-07-26T18:00:37.482Z,101512.66
2022-07-26T18:03:05.269Z,101515.31
2022-07-26T18:05:38.198Z,101509.88
2022-07-26T18:08:08.548Z,101506.19
2022-07-26T18:10:36.113Z,101514.53
2022-07-26T18:13:05.633Z,101512.34
2022-07-26T18:15:33.210Z,101510.41
2022-07-26T18:18:00.802Z,101518.28
2022-07-26T18:20:28.422Z,101517.13
2022-07-26T18:22:56.024Z,101513.22
2022-07-26T18:25:23.798Z,101521.50
2022-07-26T18:27:51.354Z,101515.38
2022-07-26T18:30:20.284Z,101523.09
2022-07-26T18:32:47.860Z,101532.06
2022-07-26T18:35:15.509Z,101529.50
2022-07-26T18:37:43.166Z,101527.31
2022-07-26T18:40:11.225Z,101521.88
2022-07-26T18:42:38.834Z,101528.38
2022-07-26T18:45:07.685Z,101524.19
2022-07-26T18:47:36.612Z,101521.78
2022-07-26T18:50:05.026Z,101522.75
2022-07-26T18:52:32.949Z,101517.16
2022-07-26T18:55:02.501Z,101517.88
2022-07-26T18:57:30.160Z,101520.00
2022-07-26T18:59:57.755Z,101510.91
2022-07-26T19:02:25.609Z,101514.22
2022-07-26T19:04:54.874Z,101516.50
2022-07-26T19:07:22.538Z,101525.66
2022-07-26T19:09:53.644Z,101519.44
2022-07-26T19:12:24.063Z,101525.66
2022-07-26T19:14:51.662Z,101531.63
2022-07-26T19:17:19.290Z,101534.78
2022-07-26T19:19:46.866Z,101537.69
2022-07-26T19:22:15.785Z,101545.53
2022-07-26T19:24:44.409Z,101542.25
2022-07-26T19:27:12.491Z,101543.06
2022-07-26T19:29:40.194Z,101544.31
2022-07-26T19:32:08.892Z,101545.59
2022-07-26T19:34:36.930Z,101551.38
2022-07-26T19:37:07.310Z,101544.16
2022-07-26T19:39:36.262Z,101557.00
2022-07-26T19:42:06.257Z,101562.56
2022-07-26T19:44:33.936Z,101562.78
2022-07-26T19:47:01.550Z,101559.88
2022-07-26T19:49:29.426Z,101571.03
2022-07-26T19:51:57.676Z,101571.25
2022-07-26T19:54:25.235Z,101573.53
2022-07-26T19:56:54.499Z,101571.25
2022-07-26T19:59:23.946Z,101568.38
2022-07-26T20:01:55.146Z,101572.50
2022-07-26T20:04:25.913Z,101563.81
2022-07-26T20:06:53.622Z,101573.53
2022-07-26T20:09:21.197Z,101566.91
2022-07-26T20:11:50.870Z,101563.19
2022-07-26T20:14:20.649Z,101561.97
2022-07-26T20:16:51.695Z,101568.78
2022-07-26T20:19:24.190Z,101566.09
2022-07-26T20:21:53.268Z,101562.78
2022-07-26T20:24:20.902Z,101563.00
2022-07-26T20:26:48.749Z,101563.00
2022-07-26T20:29:16.322Z,101567.13
2022-07-26T20:31:45.765Z,101567.53
2022-07-26T20:34:13.356Z,101568.16
2022-07-26T20:36:41.218Z,101563.38
2022-07-26T20:39:09.093Z,101567.13
2022-07-26T20:41:37.056Z,101567.13
2022-07-26T20:44:05.009Z,101562.13
2022-07-26T20:46:32.632Z,101569.59
2022-07-26T20:49:01.660Z,101572.69
2022-07-26T20:51:29.320Z,101567.09
2022-07-26T20:53:56.959Z,101559.47
2022-07-26T20:56:24.922Z,101565.66
2022-07-26T20:58:53.568Z,101572.88
2022-07-26T21:01:21.171Z,101574.75
2022-07-26T21:03:48.813Z,101574.34
2022-07-26T21:06:17.757Z,101577.00
2022-07-26T21:08:45.310Z,101581.53
2022-07-26T21:11:12.909Z,101571.63
2022-07-26T21:13:40.473Z,101588.97
2022-07-26T21:16:09.769Z,101585.28
2022-07-26T21:18:38.292Z,101588.97
2022-07-26T21:21:06.789Z,101598.25
2022-07-26T21:23:35.729Z,101600.94
2022-07-26T21:26:03.438Z,101596.81
2022-07-26T21:28:31.142Z,101592.91
2022-07-26T21:30:58.757Z,101595.56
2022-07-26T21:33:26.346Z,101592.25
2022-07-26T21:35:53.914Z,101592.66
2022-07-26T21:38:21.558Z,101586.69
2022-07-26T21:40:51.383Z,101588.97
2022-07-26T21:43:19.522Z,101592.66
2022-07-26T21:45:47.831Z,101586.88
2022-07-26T21:48:15.747Z,101594.34
2022-07-26T21:50:45.412Z,101591.06
2022-07-26T21:53:13.516Z,101596.81
2022-07-26T21:55:41.342Z,101594.56
2022-07-26T21:58:10.450Z,101590.03
2022-07-26T22:00:39.172Z,101598.91
2022-07-26T22:03:08.776Z,101594.97
2022-07-26T22:05:38.053Z,101597.66
2022-07-26T22:08:07.593Z,101593.09
2022-07-26T22:10:35.360Z,101599.09
2022-07-26T22:13:14.074Z,101593.34
2022-07-26T22:15:42.112Z,101597.66
2022-07-26T22:18:10.164Z,101589.41
2022-07-26T22:20:38.553Z,101593.94
2022-07-26T22:23:09.067Z,101591.03
2022-07-26T22:25:37.793Z,101595.78
2022-07-26T22:28:06.814Z,101587.72
2022-07-26T22:30:36.393Z,101589.38
2022-07-26T22:33:07.776Z,101594.75
2022-07-26T22:35:36.846Z,101594.13
2022-07-26T22:38:06.111Z,101585.47
2022-07-26T22:40:33.877Z,101593.34
2022-07-26T22:43:01.864Z,101589.59
2022-07-26T22:45:30.991Z,101587.31
2022-07-26T22:48:02.246Z,101588.38
2022-07-26T22:50:29.923Z,101581.13
2022-07-26T22:52:57.629Z,101580.50
2022-07-26T22:55:25.514Z,101579.47
2022-07-26T22:57:53.389Z,101583.63
2022-07-26T23:00:21.880Z,101587.13
2022-07-26T23:02:49.457Z,101584.44
2022-07-26T23:05:19.446Z,101591.44
2022-07-26T23:07:48.009Z,101588.16
2022-07-26T23:10:16.535Z,101592.72
2022-07-26T23:12:44.626Z,101598.47
2022-07-26T23:15:12.930Z,101593.88
2022-07-26T23:17:40.842Z,101583.16
2022-07-26T23:20:10.634Z,101582.50
2022-07-26T23:22:41.772Z,101578.00
2022-07-26T23:25:09.973Z,101579.81
2022-07-26T23:27:37.601Z,101575.09
2022-07-26T23:30:05.796Z,101580.22
2022-07-26T23:32:33.353Z,101576.13
2022-07-26T23:35:00.915Z,101571.59
2022-07-26T23:37:28.485Z,101568.28
2022-07-26T23:39:57.444Z,101576.97
2022-07-26T23:42:24.993Z,101572.41
2022-07-26T23:44:52.599Z,101569.94
2022-07-26T23:47:20.147Z,101573.63
2022-07-26T23:49:47.714Z,101572.03
2022-07-26T23:52:15.311Z,101569.97
2022-07-26T23:54:42.902Z,101568.94
2022-07-26T23:57:11.950Z,101574.31
2022-07-26T23:59:39.500Z,101562.53
